TTL weather

Turtle Island Seaplane Base
Nanuya Levu Island, Western, Fiji

Public forecast

Using degrees Celsius for public forecast. Weather courtesy of forecast.io.

METAR (pilot weather report)

Closest report is Nadi International Airport, 47.6 nm (88.1 km) S. Retrieved 2019/07/23 00:00 UTC (6 minutes ago):

NFFN 230000Z 26008KT 230V290 9999 FEW030 SCT050 26/15 Q1012 NOSIG

TAF (pilot weather forecast)

Forecast is more than 12 hours old.

Closest forecast is Nadi International Airport, 47.6 nm (88.1 km) S. Retrieved 2019/07/22 00:00 UTC (1 day ago):

TAF NFFN 222304Z 2300/2324 14008KT 9999 FEW030 SCT050